createdAt,value
2018-09-02T00:01:31.310Z,77.37
2018-09-02T00:04:03.325Z,76.55
2018-09-02T00:06:34.934Z,76.56
2018-09-02T00:09:07.641Z,76.69
2018-09-02T00:11:39.498Z,77.03
2018-09-02T00:14:11.586Z,76.76
2018-09-02T00:16:43.674Z,77.57
2018-09-02T00:19:15.682Z,77.45
2018-09-02T00:21:47.448Z,77.08
2018-09-02T00:24:19.373Z,77.29
2018-09-02T00:26:51.251Z,76.85
2018-09-02T00:29:22.980Z,76.55
2018-09-02T00:31:54.689Z,76.34
2018-09-02T00:34:26.482Z,76.38
2018-09-02T00:36:58.202Z,75.16
2018-09-02T00:39:30.560Z,76.40
2018-09-02T00:42:02.482Z,76.69
2018-09-02T00:44:34.391Z,75.31
2018-09-02T00:47:06.172Z,76.72
2018-09-02T00:49:38.027Z,76.89
2018-09-02T00:52:09.603Z,76.50
2018-09-02T00:54:41.544Z,76.60
2018-09-02T00:57:13.043Z,76.85
2018-09-02T00:59:44.761Z,77.33
2018-09-02T01:02:16.339Z,77.49
2018-09-02T01:04:48.197Z,77.06
2018-09-02T01:07:19.953Z,76.45
2018-09-02T01:09:51.844Z,76.49
2018-09-02T01:12:23.354Z,76.54
2018-09-02T01:14:55.187Z,76.84
2018-09-02T01:17:26.621Z,76.96
2018-09-02T01:19:58.566Z,76.96
2018-09-02T01:22:30.376Z,76.95
2018-09-02T01:25:02.124Z,77.62
2018-09-02T01:27:33.671Z,77.31
2018-09-02T01:30:05.415Z,77.42
2018-09-02T01:32:37.293Z,77.89
2018-09-02T01:35:13.445Z,78.02
2018-09-02T01:37:45.204Z,76.96
2018-09-02T01:40:16.868Z,76.56
2018-09-02T01:42:49.472Z,74.67
2018-09-02T01:45:21.403Z,72.50
2018-09-02T01:47:52.959Z,74.98
2018-09-02T01:50:24.770Z,75.54
2018-09-02T01:52:56.592Z,76.17
2018-09-02T01:55:28.370Z,77.51
2018-09-02T01:57:59.918Z,77.82
2018-09-02T02:00:32.529Z,77.71
2018-09-02T02:10:04.454Z,78.62
2018-09-02T02:12:36.061Z,78.40
2018-09-02T02:15:08.011Z,77.71
2018-09-02T02:17:39.924Z,77.74
2018-09-02T02:20:11.853Z,78.77
2018-09-02T02:22:43.516Z,78.60
2018-09-02T02:25:15.123Z,78.72
2018-09-02T02:27:46.799Z,78.33
2018-09-02T02:30:18.995Z,77.99
2018-09-02T02:32:50.771Z,78.02
2018-09-02T02:35:22.493Z,77.72
2018-09-02T02:37:54.083Z,77.73
2018-09-02T02:40:26.003Z,77.72
2018-09-02T02:42:58.782Z,77.40
2018-09-02T02:45:30.753Z,78.34
2018-09-02T02:48:02.606Z,78.37
2018-09-02T02:50:34.819Z,76.63
2018-09-02T02:53:06.896Z,76.80
2018-09-02T02:55:38.875Z,77.81
2018-09-02T02:58:10.575Z,77.28
2018-09-02T03:00:42.653Z,77.03
2018-09-02T03:03:14.503Z,77.16
2018-09-02T03:05:46.343Z,77.08
2018-09-02T03:08:18.168Z,77.49
2018-09-02T03:10:50.174Z,78.40
2018-09-02T03:13:21.980Z,78.21
2018-09-02T03:15:53.730Z,78.26
2018-09-02T03:18:25.407Z,77.59
2018-09-02T03:20:57.196Z,78.11
2018-09-02T03:23:28.861Z,77.88
2018-09-02T03:26:00.847Z,77.84
2018-09-02T03:28:32.404Z,77.46
2018-09-02T03:31:04.209Z,81.26
2018-09-02T03:33:36.500Z,81.53
2018-09-02T03:36:08.638Z,80.87
2018-09-02T03:38:40.503Z,80.86
2018-09-02T03:41:12.754Z,82.21
2018-09-02T03:43:44.685Z,82.96
2018-09-02T03:46:16.260Z,82.87
2018-09-02T03:48:48.092Z,83.02
2018-09-02T03:51:20.152Z,83.53
2018-09-02T03:53:51.573Z,83.03
2018-09-02T03:56:23.461Z,84.26
2018-09-02T03:58:55.189Z,84.24
2018-09-02T04:01:26.974Z,84.46
2018-09-02T04:03:58.811Z,85.59
2018-09-02T04:06:30.582Z,85.13
2018-09-02T04:09:02.044Z,85.22
2018-09-02T04:11:33.917Z,85.65
2018-09-02T04:14:05.351Z,86.63
2018-09-02T04:16:37.220Z,85.83
2018-09-02T04:19:08.848Z,86.67
2018-09-02T04:21:40.188Z,86.91
2018-09-02T04:24:11.500Z,86.48
2018-09-02T04:26:42.575Z,86.92
2018-09-02T04:29:14.288Z,86.42
2018-09-02T04:31:46.135Z,86.29
2018-09-02T04:34:17.720Z,86.92
2018-09-02T04:36:49.695Z,86.74
2018-09-02T04:39:21.539Z,87.54
2018-09-02T04:41:53.480Z,87.24
2018-09-02T04:44:25.226Z,88.10
2018-09-02T04:46:57.094Z,87.56
2018-09-02T04:49:28.576Z,88.41
2018-09-02T04:52:00.119Z,88.14
2018-09-02T04:54:32.712Z,88.69
2018-09-02T04:57:05.951Z,88.32
2018-09-02T04:59:37.750Z,86.76
2018-09-02T05:02:11.596Z,87.31
2018-09-02T05:04:43.318Z,87.46
2018-09-02T05:07:16.148Z,87.03
2018-09-02T05:09:48.008Z,88.03
2018-09-02T05:12:20.050Z,88.14
2018-09-02T05:14:51.694Z,87.58
2018-09-02T05:17:25.974Z,87.26
2018-09-02T05:19:58.233Z,88.46
2018-09-02T05:22:31.119Z,88.48
2018-09-02T05:25:02.789Z,88.00
2018-09-02T05:27:34.781Z,88.80
2018-09-02T05:30:07.152Z,89.11
2018-09-02T05:32:39.096Z,88.52
2018-09-02T05:35:10.989Z,89.53
2018-09-02T05:37:43.275Z,88.87
2018-09-02T05:40:15.127Z,88.96
2018-09-02T05:42:47.760Z,89.18
2018-09-02T05:45:19.409Z,90.40
2018-09-02T05:47:51.133Z,90.67
2018-09-02T05:50:22.847Z,90.74
2018-09-02T05:52:54.611Z,91.01
2018-09-02T05:55:26.580Z,90.67
2018-09-02T05:57:58.708Z,91.57
2018-09-02T06:00:30.332Z,91.75
2018-09-02T06:03:01.976Z,90.48
2018-09-02T06:05:33.864Z,91.49
2018-09-02T06:08:05.468Z,90.78
2018-09-02T06:10:37.416Z,91.41
2018-09-02T06:13:09.265Z,91.36
2018-09-02T06:15:40.883Z,90.77
2018-09-02T06:18:12.810Z,91.42
2018-09-02T06:20:44.633Z,90.61
2018-09-02T06:23:16.511Z,91.65
2018-09-02T06:25:48.124Z,91.49
2018-09-02T06:28:19.967Z,91.23
2018-09-02T06:30:51.660Z,91.02
2018-09-02T06:33:23.437Z,90.86
2018-09-02T06:35:55.207Z,90.32
2018-09-02T06:38:27.538Z,90.74
2018-09-02T06:40:59.355Z,90.07
2018-09-02T06:43:32.093Z,91.02
2018-09-02T06:46:03.723Z,91.33
2018-09-02T06:48:35.831Z,91.11
2018-09-02T06:51:07.611Z,90.30
2018-09-02T06:53:39.253Z,90.18
2018-09-02T06:56:10.970Z,90.90
2018-09-02T06:58:42.892Z,91.55
2018-09-02T07:01:14.378Z,90.94
2018-09-02T07:05:10.768Z,91.74
2018-09-02T07:07:42.796Z,91.04
2018-09-02T07:10:14.376Z,92.46
2018-09-02T07:12:46.120Z,91.67
2018-09-02T07:15:18.018Z,92.67
2018-09-02T07:17:49.678Z,91.91
2018-09-02T07:20:21.454Z,91.64
2018-09-02T07:22:53.068Z,92.51
2018-09-02T07:25:25.002Z,91.97
2018-09-02T07:27:56.643Z,92.60
2018-09-02T07:30:29.209Z,91.98
2018-09-02T07:33:00.951Z,92.39
2018-09-02T07:35:33.085Z,91.85
2018-09-02T07:38:05.080Z,92.03
2018-09-02T07:40:37.009Z,91.75
2018-09-02T07:43:08.739Z,91.74
2018-09-02T07:45:41.600Z,92.04
2018-09-02T07:48:13.262Z,91.70
2018-09-02T07:50:45.138Z,92.14
2018-09-02T07:53:16.848Z,91.59
2018-09-02T07:55:48.668Z,91.55
2018-09-02T07:58:20.458Z,91.82
2018-09-02T08:00:53.436Z,91.48
2018-09-02T08:03:25.148Z,91.98
2018-09-02T08:05:57.077Z,91.74
2018-09-02T08:08:28.779Z,91.39
2018-09-02T08:11:00.572Z,92.18
2018-09-02T08:13:32.175Z,91.84
2018-09-02T08:16:04.080Z,90.95
2018-09-02T08:18:35.796Z,90.94
2018-09-02T08:21:07.828Z,91.58
2018-09-02T08:23:39.756Z,90.04
2018-09-02T08:26:11.534Z,91.17
2018-09-02T08:28:43.563Z,90.59
2018-09-02T08:31:15.715Z,90.56
2018-09-02T08:33:47.366Z,90.20
2018-09-02T08:36:19.178Z,90.89
2018-09-02T08:38:50.916Z,89.61
2018-09-02T08:41:22.908Z,89.01
2018-09-02T08:43:54.679Z,100.00
2018-09-02T08:46:26.343Z,89.31
2018-09-02T08:48:57.747Z,88.36
2018-09-02T08:51:29.683Z,89.22
2018-09-02T08:54:01.359Z,88.29
2018-09-02T08:56:33.265Z,88.71
2018-09-02T08:59:05.036Z,88.74
2018-09-02T09:01:36.554Z,89.54
2018-09-02T09:04:08.353Z,89.36
2018-09-02T09:06:39.834Z,88.49
2018-09-02T09:09:11.674Z,88.90
2018-09-02T09:11:43.368Z,88.93
2018-09-02T09:14:15.108Z,88.58
2018-09-02T09:16:46.972Z,87.64
2018-09-02T09:19:18.778Z,88.15
2018-09-02T09:21:50.709Z,89.13
2018-09-02T09:24:22.495Z,88.59
2018-09-02T09:26:55.230Z,88.59
2018-09-02T09:29:27.092Z,89.10
2018-09-02T09:31:59.221Z,88.54
2018-09-02T09:34:32.877Z,88.54
2018-09-02T09:37:04.721Z,88.32
2018-09-02T09:39:36.648Z,88.25
2018-09-02T09:42:08.529Z,88.12
2018-09-02T09:44:40.200Z,88.29
2018-09-02T09:47:12.083Z,88.40
2018-09-02T09:49:43.858Z,88.85
2018-09-02T09:52:15.778Z,89.08
2018-09-02T09:54:47.409Z,88.67
2018-09-02T09:57:19.348Z,89.00
2018-09-02T09:59:50.953Z,89.43
2018-09-02T10:02:22.865Z,87.68
2018-09-02T10:04:54.583Z,88.73
2018-09-02T10:07:26.428Z,88.25
2018-09-02T10:09:57.902Z,88.48
2018-09-02T10:12:29.770Z,88.60
2018-09-02T10:15:01.424Z,88.73
2018-09-02T10:17:33.268Z,88.73
2018-09-02T10:20:04.986Z,88.76
2018-09-02T10:22:36.897Z,88.63
2018-09-02T10:25:08.475Z,87.69
2018-09-02T10:27:40.274Z,88.47
2018-09-02T10:30:12.023Z,88.57
2018-09-02T10:32:44.189Z,87.94
2018-09-02T10:35:16.069Z,88.46
2018-09-02T10:37:48.344Z,87.98
2018-09-02T10:40:20.063Z,87.98
2018-09-02T10:42:51.780Z,86.94
2018-09-02T10:45:23.520Z,88.15
2018-09-02T10:47:55.434Z,87.52
2018-09-02T10:50:27.047Z,87.03
2018-09-02T10:52:58.877Z,86.75
2018-09-02T10:55:30.466Z,86.87
2018-09-02T10:58:02.252Z,86.61
2018-09-02T11:00:34.002Z,86.64
2018-09-02T11:03:05.730Z,87.35
2018-09-02T11:05:37.370Z,86.94
2018-09-02T11:08:09.823Z,87.80
2018-09-02T11:10:41.597Z,87.38
2018-09-02T11:13:13.480Z,87.09
2018-09-02T11:15:45.556Z,86.40
2018-09-02T11:18:17.524Z,87.42
2018-09-02T11:20:49.221Z,86.79
2018-09-02T11:23:20.781Z,87.58
2018-09-02T11:25:52.797Z,87.26
2018-09-02T11:28:24.589Z,87.26
2018-09-02T11:30:56.874Z,87.26
2018-09-02T11:33:28.898Z,88.37
2018-09-02T11:36:00.912Z,88.37
2018-09-02T11:38:33.053Z,88.47
2018-09-02T11:41:04.831Z,88.47
2018-09-02T11:43:36.762Z,88.47
2018-09-02T11:46:08.582Z,88.76
2018-09-02T11:48:40.647Z,88.90
2018-09-02T11:51:12.146Z,88.90
2018-09-02T11:53:44.061Z,88.90
2018-09-02T11:56:15.760Z,88.75
2018-09-02T11:58:47.548Z,89.20
2018-09-02T12:01:19.356Z,88.47
2018-09-02T12:03:51.670Z,89.12
2018-09-02T13:41:19.726Z,88.88
2018-09-02T13:43:51.407Z,90.12
2018-09-02T13:46:23.258Z,90.88
2018-09-02T13:48:55.069Z,90.84
2018-09-02T13:51:27.099Z,90.15
2018-09-02T13:53:58.783Z,89.70
2018-09-02T13:56:30.651Z,90.36
2018-09-02T13:59:02.497Z,90.30
2018-09-02T14:01:34.122Z,89.00
2018-09-02T14:04:06.000Z,88.12
2018-09-02T14:06:37.841Z,87.52
2018-09-02T14:09:10.518Z,87.23
2018-09-02T14:11:42.505Z,86.67
2018-09-02T14:14:14.167Z,87.11
2018-09-02T14:16:46.390Z,86.94
2018-09-02T14:19:17.895Z,86.77
2018-09-02T14:21:49.862Z,87.18
2018-09-02T14:24:21.712Z,86.08
2018-09-02T14:26:53.527Z,86.64
2018-09-02T14:29:25.637Z,85.80
2018-09-02T14:31:57.554Z,85.92
2018-09-02T14:34:29.332Z,85.82
2018-09-02T14:37:01.179Z,85.15
2018-09-02T14:39:32.959Z,85.33
2018-09-02T14:42:05.980Z,85.53
2018-09-02T14:44:37.776Z,85.16
2018-09-02T14:47:09.807Z,84.54
2018-09-02T14:49:41.303Z,84.56
2018-09-02T14:52:13.211Z,84.61
2018-09-02T14:54:45.042Z,84.45
2018-09-02T14:57:17.137Z,83.99
2018-09-02T14:59:48.852Z,84.45
2018-09-02T15:02:20.705Z,82.75
2018-09-02T15:04:52.265Z,83.47
2018-09-02T15:07:24.086Z,84.43
2018-09-02T15:09:55.732Z,83.78
2018-09-02T15:12:27.883Z,84.65
2018-09-02T15:14:59.577Z,83.84
2018-09-02T15:17:31.433Z,84.41
2018-09-02T15:20:03.937Z,83.94
2018-09-02T15:22:36.015Z,84.67
2018-09-02T15:25:07.822Z,84.11
2018-09-02T15:27:39.778Z,82.60
2018-09-02T15:30:11.586Z,81.71
2018-09-02T15:32:43.192Z,82.26
2018-09-02T15:35:15.400Z,82.05
2018-09-02T15:37:47.240Z,82.15
2018-09-02T15:40:19.147Z,82.60
2018-09-02T15:42:51.049Z,81.81
2018-09-02T15:45:22.635Z,81.71
2018-09-02T15:47:54.457Z,81.42
2018-09-02T15:50:26.130Z,82.18
2018-09-02T15:52:57.976Z,81.28
2018-09-02T15:55:29.688Z,82.42
2018-09-02T15:58:01.230Z,82.53
2018-09-02T16:00:33.012Z,82.41
2018-09-02T16:03:04.548Z,82.63
2018-09-02T16:05:36.338Z,82.03
2018-09-02T16:08:08.106Z,82.59
2018-09-02T16:10:39.684Z,82.33
2018-09-02T16:13:11.654Z,82.56
2018-09-02T16:15:43.270Z,81.75
2018-09-02T16:18:15.203Z,82.59
2018-09-02T16:20:47.040Z,82.09
2018-09-02T16:23:18.939Z,82.64
2018-09-02T16:25:50.777Z,82.49
2018-09-02T16:28:22.564Z,81.65
2018-09-02T16:30:54.377Z,82.44
2018-09-02T16:33:26.140Z,81.97
2018-09-02T16:35:59.350Z,81.89
2018-09-02T16:38:31.319Z,81.97
2018-09-02T16:41:03.069Z,82.72
2018-09-02T16:43:34.809Z,82.10
2018-09-02T16:46:06.794Z,82.05
2018-09-02T16:48:38.647Z,82.42
2018-09-02T16:51:10.368Z,82.77
2018-09-02T16:53:42.336Z,82.12
2018-09-02T16:56:14.018Z,82.35
2018-09-02T16:58:46.174Z,78.56
2018-09-02T17:01:18.043Z,77.35
2018-09-02T17:03:54.675Z,77.37
2018-09-02T17:06:26.681Z,77.64
2018-09-02T17:08:58.313Z,76.92
2018-09-02T17:11:30.127Z,77.70
2018-09-02T17:14:01.999Z,77.79
2018-09-02T17:16:33.389Z,77.11
2018-09-02T17:19:26.948Z,76.72
2018-09-02T17:21:59.383Z,77.08
2018-09-02T17:24:31.218Z,77.33
2018-09-02T17:27:03.071Z,77.12
2018-09-02T17:29:34.681Z,77.28
2018-09-02T17:32:11.696Z,76.86
2018-09-02T17:34:43.222Z,77.26
2018-09-02T17:37:15.367Z,77.24
2018-09-02T17:39:47.231Z,77.26
2018-09-02T17:42:19.028Z,77.01
2018-09-02T17:44:50.903Z,77.57
2018-09-02T17:47:22.753Z,76.89
2018-09-02T17:49:54.533Z,75.54
2018-09-02T17:52:26.280Z,75.61
2018-09-02T17:54:58.819Z,75.45
2018-09-02T17:57:31.123Z,74.18
2018-09-02T18:00:03.127Z,75.46
2018-09-02T18:02:34.854Z,75.30
2018-09-02T18:05:06.466Z,75.12
2018-09-02T18:07:38.552Z,77.82
2018-09-02T18:10:10.320Z,77.50
2018-09-02T18:12:42.276Z,76.88
2018-09-02T18:15:13.888Z,76.97
2018-09-02T18:17:45.709Z,77.61
2018-09-02T18:20:17.651Z,78.98
2018-09-02T18:22:49.277Z,79.25
2018-09-02T18:25:21.111Z,78.57
2018-09-02T18:27:56.508Z,79.80
2018-09-02T18:30:28.312Z,79.14
2018-09-02T18:32:59.917Z,78.49
2018-09-02T18:35:31.949Z,79.36
2018-09-02T18:38:03.412Z,78.35
2018-09-02T18:40:35.353Z,77.92
2018-09-02T18:43:07.135Z,78.15
2018-09-02T18:45:39.092Z,78.83
2018-09-02T18:48:10.899Z,78.32
2018-09-02T18:50:42.723Z,78.74
2018-09-02T18:53:14.632Z,78.58
2018-09-02T18:55:46.379Z,79.39
2018-09-02T18:58:17.788Z,79.71
2018-09-02T19:00:49.715Z,79.29
2018-09-02T19:03:21.846Z,79.60
2018-09-02T19:05:53.532Z,79.11
2018-09-02T19:08:25.262Z,79.63
2018-09-02T19:10:57.188Z,77.78
2018-09-02T19:13:29.391Z,78.38
2018-09-02T19:16:01.021Z,77.79
2018-09-02T19:18:32.773Z,78.78
2018-09-02T19:21:04.670Z,78.48
2018-09-02T19:23:36.480Z,77.89
2018-09-02T19:26:08.558Z,77.36
2018-09-02T19:28:40.364Z,76.80
2018-09-02T19:31:11.878Z,77.51
2018-09-02T19:33:48.038Z,78.36
2018-09-02T19:36:19.828Z,78.36
2018-09-02T19:38:51.973Z,77.87
2018-09-02T19:41:24.195Z,78.26
2018-09-02T19:43:56.212Z,78.52
2018-09-02T19:46:27.964Z,77.62
2018-09-02T19:48:59.766Z,77.80
2018-09-02T19:51:31.499Z,78.09
2018-09-02T19:54:03.204Z,78.20
2018-09-02T19:56:34.997Z,78.74
2018-09-02T19:59:06.653Z,78.58
2018-09-02T20:01:38.992Z,79.64
2018-09-02T20:04:10.590Z,79.24
2018-09-02T20:06:42.504Z,78.78
2018-09-02T20:09:15.234Z,78.40
2018-09-02T20:11:47.146Z,78.87
2018-09-02T20:14:19.001Z,78.01
2018-09-02T20:16:50.887Z,78.09
2018-09-02T20:19:22.658Z,78.19
2018-09-02T20:21:54.672Z,78.69
2018-09-02T20:24:26.756Z,78.93
2018-09-02T20:26:58.659Z,79.54
2018-09-02T20:29:30.611Z,79.44
2018-09-02T20:32:02.594Z,79.92
2018-09-02T20:34:34.301Z,79.92
2018-09-02T20:37:06.484Z,79.93
2018-09-02T20:39:38.214Z,79.63
2018-09-02T20:42:10.205Z,79.01
2018-09-02T20:44:42.019Z,80.07
2018-09-02T20:47:13.881Z,80.38
2018-09-02T20:49:45.661Z,79.61
2018-09-02T20:52:17.310Z,79.85
2018-09-02T20:54:48.999Z,79.61
2018-09-02T20:57:20.741Z,80.62
2018-09-02T20:59:53.325Z,79.47
2018-09-02T21:02:25.363Z,80.02
2018-09-02T21:04:57.354Z,79.83
2018-09-02T21:07:28.964Z,80.30
2018-09-02T21:10:00.926Z,79.48
2018-09-02T21:12:36.920Z,79.47
2018-09-02T21:15:08.536Z,79.09
2018-09-02T21:17:40.694Z,79.38
2018-09-02T21:20:12.484Z,79.77
2018-09-02T21:22:44.465Z,79.77
2018-09-02T21:25:16.925Z,79.32
2018-09-02T21:27:48.763Z,79.46
2018-09-02T21:30:20.881Z,79.56
2018-09-02T21:32:52.514Z,79.53
2018-09-02T21:35:24.301Z,79.60
2018-09-02T21:37:56.434Z,79.62
2018-09-02T21:40:28.251Z,80.75
2018-09-02T21:43:00.101Z,80.75
2018-09-02T21:45:31.512Z,80.78
2018-09-02T21:48:03.448Z,80.23
2018-09-02T21:50:35.728Z,80.80
2018-09-02T21:53:08.358Z,80.31
2018-09-02T21:55:40.027Z,78.77
2018-09-02T21:58:11.924Z,78.88
2018-09-02T22:00:43.744Z,78.14
2018-09-02T22:03:15.620Z,78.50
2018-09-02T22:05:47.515Z,78.22
2018-09-02T22:08:19.141Z,77.54
2018-09-02T22:10:51.025Z,77.88
2018-09-02T22:13:23.093Z,79.43
2018-09-02T22:15:54.938Z,79.71
2018-09-02T22:18:26.791Z,78.85
2018-09-02T22:20:58.554Z,78.97
2018-09-02T22:23:30.217Z,80.03
2018-09-02T22:26:02.124Z,79.93
2018-09-02T22:28:34.049Z,79.67
2018-09-02T22:31:05.851Z,79.08
2018-09-02T22:33:38.009Z,79.45
2018-09-02T22:36:09.874Z,79.05
2018-09-02T22:38:41.755Z,79.15
2018-09-02T22:41:13.615Z,80.59
2018-09-02T22:43:46.166Z,79.80
2018-09-02T22:46:18.014Z,79.60
2018-09-02T22:48:49.901Z,78.63
2018-09-02T22:51:21.803Z,79.34
2018-09-02T22:53:53.693Z,79.31
2018-09-02T22:56:25.331Z,79.27
2018-09-02T22:58:57.182Z,79.63
2018-09-02T23:01:29.020Z,80.71
2018-09-02T23:04:00.856Z,80.61
2018-09-02T23:06:32.636Z,80.05
2018-09-02T23:09:04.754Z,79.92
2018-09-02T23:11:36.485Z,79.62
2018-09-02T23:14:09.463Z,79.52
2018-09-02T23:16:41.369Z,78.90
2018-09-02T23:19:13.308Z,78.12
2018-09-02T23:21:45.056Z,78.72
2018-09-02T23:24:17.282Z,79.06
2018-09-02T23:26:49.272Z,77.91
2018-09-02T23:29:21.124Z,77.70
2018-09-02T23:31:52.988Z,78.57
2018-09-02T23:34:25.771Z,78.53
2018-09-02T23:36:57.568Z,77.44
2018-09-02T23:39:29.325Z,77.55
2018-09-02T23:42:01.020Z,78.01
2018-09-02T23:44:33.113Z,78.25
2018-09-02T23:47:05.152Z,78.51
2018-09-02T23:49:37.053Z,79.63
2018-09-02T23:52:08.980Z,79.47
2018-09-02T23:54:40.920Z,79.60
2018-09-02T23:57:12.855Z,79.66
2018-09-02T23:59:44.599Z,79.89
